createdAt,value
2023-03-25T00:01:17.600Z,13.70
2023-03-25T00:03:50.868Z,13.68
2023-03-25T00:06:18.523Z,13.81
2023-03-25T00:08:46.079Z,13.85
2023-03-25T00:11:13.491Z,13.69
2023-03-25T00:13:42.189Z,13.73
2023-03-25T00:16:10.500Z,13.69
2023-03-25T00:18:38.131Z,13.57
2023-03-25T00:21:11.870Z,13.62
2023-03-25T00:23:41.445Z,13.65
2023-03-25T00:26:09.394Z,13.53
2023-03-25T00:28:38.663Z,13.50
2023-03-25T00:31:12.371Z,13.50
2023-03-25T00:33:41.874Z,13.41
2023-03-25T00:36:13.459Z,13.35
2023-03-25T00:38:43.466Z,13.41
2023-03-25T00:41:17.729Z,13.39
2023-03-25T00:43:46.096Z,13.28
2023-03-25T00:46:14.029Z,13.37
2023-03-25T00:48:42.107Z,13.24
2023-03-25T00:51:10.404Z,13.26
2023-03-25T00:53:38.329Z,13.22
2023-03-25T00:56:08.018Z,13.30
2023-03-25T00:58:35.369Z,13.18
2023-03-25T01:01:14.225Z,13.25
2023-03-25T01:03:44.145Z,13.37
2023-03-25T01:06:17.131Z,13.26
2023-03-25T01:08:44.997Z,13.37
2023-03-25T01:11:22.779Z,13.17
2023-03-25T01:13:51.561Z,13.12
2023-03-25T01:16:18.982Z,13.02
2023-03-25T01:18:46.360Z,13.03
2023-03-25T01:21:13.906Z,13.13
2023-03-25T01:23:41.677Z,13.10
2023-03-25T01:26:09.349Z,12.98
2023-03-25T01:28:37.100Z,13.15
2023-03-25T01:31:08.340Z,12.97
2023-03-25T01:33:36.153Z,12.95
2023-03-25T01:36:04.670Z,12.89
2023-03-25T01:38:32.308Z,13.02
2023-03-25T01:40:59.512Z,12.80
2023-03-25T01:43:26.920Z,12.88
2023-03-25T01:45:54.338Z,13.04
2023-03-25T01:48:44.447Z,12.95
2023-03-25T01:51:24.426Z,12.92
2023-03-25T01:53:55.175Z,12.79
2023-03-25T01:56:32.006Z,12.94
2023-03-25T01:59:05.014Z,12.96
2023-03-25T02:01:32.799Z,12.82
2023-03-25T02:04:09.907Z,12.72
2023-03-25T02:06:52.964Z,12.76
2023-03-25T02:09:25.433Z,12.65
2023-03-25T02:11:54.909Z,12.88
2023-03-25T02:14:28.684Z,12.70
2023-03-25T02:17:33.494Z,12.53
2023-03-25T02:20:38.233Z,12.54
2023-03-25T02:24:03.108Z,12.38
2023-03-25T02:27:14.247Z,12.42
2023-03-25T02:30:07.867Z,12.47
2023-03-25T02:32:47.304Z,12.30
2023-03-25T02:35:26.597Z,12.27
2023-03-25T02:38:12.046Z,12.05
2023-03-25T02:41:20.089Z,11.74
2023-03-25T02:44:16.041Z,11.64
2023-03-25T02:46:54.318Z,11.66
2023-03-25T02:49:33.760Z,11.63
2023-03-25T02:52:22.211Z,11.55
2023-03-25T02:54:53.142Z,11.71
2023-03-25T02:57:22.903Z,11.54
2023-03-25T02:59:54.164Z,11.68
2023-03-25T03:02:25.814Z,11.50
2023-03-25T03:04:56.887Z,11.44
2023-03-25T03:07:33.269Z,11.55
2023-03-25T03:10:47.809Z,11.48
2023-03-25T03:13:38.298Z,11.64
2023-03-25T03:16:31.134Z,11.41
2023-03-25T03:19:38.337Z,11.56
2023-03-25T03:22:41.518Z,11.63
2023-03-25T03:25:23.135Z,11.60
2023-03-25T03:28:16.481Z,11.54
2023-03-25T03:31:15.645Z,11.64
2023-03-25T03:34:19.301Z,11.56
2023-03-25T03:36:51.453Z,11.53
2023-03-25T03:39:28.747Z,11.25
2023-03-25T03:42:03.206Z,11.27
2023-03-25T03:44:36.094Z,11.25
2023-03-25T03:47:18.387Z,11.41
2023-03-25T03:49:53.152Z,11.17
2023-03-25T03:52:33.496Z,11.24
2023-03-25T03:55:14.114Z,11.21
2023-03-25T03:57:49.786Z,11.02
2023-03-25T04:00:25.877Z,11.07
2023-03-25T04:03:10.547Z,11.18
2023-03-25T04:05:39.682Z,11.06
2023-03-25T04:08:28.821Z,11.09
2023-03-25T04:11:04.766Z,11.09
2023-03-25T04:13:38.114Z,10.95
2023-03-25T04:16:07.523Z,10.99
2023-03-25T04:18:34.813Z,10.84
2023-03-25T04:21:02.286Z,10.77
2023-03-25T04:23:34.204Z,10.97
2023-03-25T04:26:03.026Z,10.87
2023-03-25T04:28:31.859Z,10.75
2023-03-25T04:31:00.789Z,10.78
2023-03-25T04:33:32.285Z,10.86
2023-03-25T04:36:01.985Z,10.89
2023-03-25T04:38:29.754Z,10.87
2023-03-25T04:40:58.313Z,10.91
2023-03-25T04:43:25.677Z,10.90
2023-03-25T04:45:58.286Z,10.70
2023-03-25T04:48:32.261Z,10.79
2023-03-25T04:51:01.890Z,10.77
2023-03-25T04:53:30.346Z,10.77
2023-03-25T04:55:58.744Z,10.76
2023-03-25T04:58:27.052Z,10.71
2023-03-25T05:00:54.492Z,10.51
2023-03-25T05:03:24.483Z,10.50
2023-03-25T05:05:53.599Z,10.55
2023-03-25T05:08:23.917Z,10.74
2023-03-25T05:10:51.439Z,10.70
2023-03-25T05:13:18.780Z,10.81
2023-03-25T05:15:46.027Z,10.83
2023-03-25T05:18:16.213Z,10.81
2023-03-25T05:20:47.046Z,10.90
2023-03-25T05:23:18.244Z,10.82
2023-03-25T05:25:51.012Z,10.69
2023-03-25T05:28:19.656Z,10.60
2023-03-25T05:30:48.106Z,10.78
2023-03-25T05:33:17.721Z,10.69
2023-03-25T05:35:45.715Z,10.91
2023-03-25T05:38:18.965Z,10.76
2023-03-25T05:40:47.918Z,10.83
2023-03-25T05:43:16.248Z,10.91
2023-03-25T05:45:45.129Z,11.03
2023-03-25T05:48:12.486Z,10.97
2023-03-25T05:50:42.991Z,11.04
2023-03-25T05:53:18.267Z,11.13
2023-03-25T05:55:47.551Z,10.95
2023-03-25T05:58:14.876Z,11.12
2023-03-25T06:00:42.484Z,11.01
2023-03-25T06:03:10.293Z,11.15
2023-03-25T06:05:40.090Z,11.24
2023-03-25T06:08:07.388Z,11.47
2023-03-25T06:10:34.656Z,11.38
2023-03-25T06:13:01.814Z,11.34
2023-03-25T06:15:33.438Z,11.52
2023-03-25T06:18:01.288Z,11.63
2023-03-25T06:20:28.944Z,11.98
2023-03-25T06:22:56.638Z,12.07
2023-03-25T06:25:24.373Z,12.10
2023-03-25T06:27:51.689Z,12.17
2023-03-25T06:30:21.826Z,12.04
2023-03-25T06:32:50.834Z,12.60
2023-03-25T06:35:20.701Z,12.66
2023-03-25T06:37:49.795Z,13.07
2023-03-25T06:40:32.402Z,13.16
2023-03-25T06:43:02.488Z,13.48
2023-03-25T06:45:52.852Z,13.61
2023-03-25T06:48:29.304Z,14.36
2023-03-25T06:50:56.716Z,15.49
2023-03-25T06:53:24.210Z,16.98
2023-03-25T06:55:51.848Z,17.47
2023-03-25T06:58:19.290Z,16.89
2023-03-25T07:00:47.049Z,17.47
2023-03-25T07:03:14.328Z,18.28
2023-03-25T07:05:43.537Z,19.19
2023-03-25T07:08:10.787Z,20.02
2023-03-25T07:10:38.114Z,19.61
2023-03-25T07:13:05.469Z,17.17
2023-03-25T07:15:32.733Z,17.88
2023-03-25T07:17:59.891Z,18.36
2023-03-25T07:20:27.154Z,18.67
2023-03-25T07:22:56.047Z,17.84
2023-03-25T07:25:23.426Z,15.77
2023-03-25T07:27:50.875Z,15.61
2023-03-25T07:30:19.855Z,15.69
2023-03-25T07:32:47.279Z,15.73
2023-03-25T07:35:14.651Z,15.89
2023-03-25T07:37:41.882Z,15.55
2023-03-25T07:40:09.856Z,15.55
2023-03-25T07:42:38.608Z,14.70
2023-03-25T07:45:22.575Z,14.75
2023-03-25T07:47:53.358Z,14.56
2023-03-25T07:50:25.455Z,14.30
2023-03-25T07:52:54.785Z,15.54
2023-03-25T07:55:22.297Z,15.85
2023-03-25T07:57:49.587Z,15.95
2023-03-25T08:00:16.983Z,15.88
2023-03-25T08:02:44.314Z,15.48
2023-03-25T08:05:12.551Z,15.30
2023-03-25T08:07:39.810Z,15.71
2023-03-25T08:10:08.147Z,16.33
2023-03-25T08:12:36.826Z,17.35
2023-03-25T08:15:04.598Z,18.98
2023-03-25T08:17:31.919Z,19.85
2023-03-25T08:20:00.792Z,19.66
2023-03-25T08:22:28.329Z,19.93
2023-03-25T08:24:56.101Z,21.93
2023-03-25T08:27:23.846Z,21.69
2023-03-25T08:29:57.557Z,21.15
2023-03-25T08:32:27.260Z,20.78
2023-03-25T08:34:55.355Z,20.65
2023-03-25T08:37:23.998Z,19.17
2023-03-25T08:39:51.590Z,18.72
2023-03-25T08:42:19.158Z,18.26
2023-03-25T08:44:46.717Z,20.68
2023-03-25T08:47:14.136Z,21.35
2023-03-25T08:49:41.590Z,21.79
2023-03-25T08:52:10.388Z,21.68
2023-03-25T08:54:37.863Z,23.10
2023-03-25T08:57:06.101Z,23.03
2023-03-25T08:59:33.433Z,22.83
2023-03-25T09:02:01.544Z,23.87
2023-03-25T09:04:29.446Z,22.44
2023-03-25T09:07:11.747Z,22.32
2023-03-25T09:09:41.054Z,22.05
2023-03-25T09:12:08.955Z,23.18
2023-03-25T09:14:37.031Z,23.09
2023-03-25T09:17:06.477Z,22.86
2023-03-25T09:19:38.218Z,18.84
2023-03-25T09:22:06.778Z,18.62
2023-03-25T09:24:35.863Z,19.19
2023-03-25T09:27:03.799Z,21.06
2023-03-25T09:29:31.369Z,24.06
2023-03-25T09:31:59.846Z,23.93
2023-03-25T09:34:28.094Z,22.74
2023-03-25T09:36:56.184Z,21.66
2023-03-25T09:39:23.569Z,21.78
2023-03-25T09:42:23.254Z,21.27
2023-03-25T09:45:07.147Z,18.87
2023-03-25T09:47:42.362Z,19.83
2023-03-25T09:50:15.149Z,24.22
2023-03-25T09:53:07.395Z,27.38
2023-03-25T09:55:41.261Z,27.46
2023-03-25T09:58:36.681Z,26.59
2023-03-25T10:01:27.753Z,27.67
2023-03-25T10:04:08.468Z,25.72
2023-03-25T10:06:58.711Z,20.60
2023-03-25T10:10:00.758Z,17.57
2023-03-25T10:13:04.219Z,16.56
2023-03-25T10:15:36.703Z,16.59
2023-03-25T10:18:34.521Z,18.24
2023-03-25T10:21:11.796Z,21.67
2023-03-25T10:24:25.829Z,22.55
2023-03-25T10:27:01.962Z,21.10
2023-03-25T10:30:00.761Z,19.68
2023-03-25T10:33:02.820Z,21.34
2023-03-25T10:35:34.096Z,20.62
2023-03-25T10:38:32.340Z,18.60
2023-03-25T10:41:31.133Z,18.25
2023-03-25T10:43:58.380Z,16.74
2023-03-25T10:46:48.714Z,16.10
2023-03-25T10:49:21.199Z,15.87
2023-03-25T10:51:57.598Z,15.58
2023-03-25T10:54:31.880Z,15.15
2023-03-25T10:57:26.906Z,12.52
2023-03-25T11:00:18.873Z,10.44
2023-03-25T11:02:47.821Z,9.79
2023-03-25T11:05:20.834Z,10.08
2023-03-25T11:08:08.741Z,10.30
2023-03-25T11:10:39.142Z,10.32
2023-03-25T11:13:13.288Z,10.16
2023-03-25T11:15:42.083Z,10.59
2023-03-25T11:18:34.566Z,10.97
2023-03-25T11:21:12.478Z,11.61
2023-03-25T11:23:52.137Z,11.75
2023-03-25T11:26:30.264Z,12.41
2023-03-25T11:29:06.278Z,13.38
2023-03-25T11:31:38.035Z,15.80
2023-03-25T11:34:21.371Z,17.61
2023-03-25T11:36:55.415Z,18.73
2023-03-25T11:39:39.881Z,19.41
2023-03-25T11:42:22.316Z,20.04
2023-03-25T11:44:55.483Z,21.20
2023-03-25T11:47:39.062Z,19.73
2023-03-25T11:50:07.814Z,19.78
2023-03-25T11:52:46.782Z,17.19
2023-03-25T11:55:30.623Z,16.32
2023-03-25T11:58:02.187Z,16.02
2023-03-25T12:00:51.318Z,15.77
2023-03-25T12:03:23.220Z,16.16
2023-03-25T12:06:14.648Z,16.85
2023-03-25T12:09:07.484Z,17.38
2023-03-25T12:12:14.493Z,16.48
2023-03-25T12:15:24.097Z,17.39
2023-03-25T12:18:14.822Z,19.50
2023-03-25T12:21:20.930Z,19.85
2023-03-25T12:24:17.455Z,19.22
2023-03-25T12:27:25.230Z,17.14
2023-03-25T12:30:17.057Z,16.19
2023-03-25T12:33:02.255Z,15.51
2023-03-25T12:35:41.591Z,14.97
2023-03-25T12:38:26.084Z,14.70
2023-03-25T12:41:23.340Z,14.26
2023-03-25T12:44:36.267Z,14.05
2023-03-25T12:47:21.402Z,13.56
2023-03-25T12:50:22.986Z,13.56
2023-03-25T12:53:15.832Z,13.85
2023-03-25T12:56:16.708Z,13.60
2023-03-25T12:59:41.775Z,13.49
2023-03-25T13:02:38.817Z,13.66
2023-03-25T13:05:35.430Z,13.74
2023-03-25T13:08:18.829Z,13.88
2023-03-25T13:10:56.369Z,13.59
2023-03-25T13:13:27.119Z,13.77
2023-03-25T13:16:10.452Z,13.36
2023-03-25T13:18:47.533Z,13.40
2023-03-25T13:21:39.415Z,13.30
2023-03-25T13:24:16.215Z,12.98
2023-03-25T13:26:46.615Z,12.84
2023-03-25T13:29:34.460Z,13.33
2023-03-25T13:32:10.028Z,13.49
2023-03-25T13:34:56.921Z,13.50
2023-03-25T13:37:34.955Z,14.13
2023-03-25T13:40:14.289Z,14.40
2023-03-25T13:43:08.060Z,14.63
2023-03-25T13:46:07.426Z,14.24
2023-03-25T13:49:33.682Z,13.70
2023-03-25T13:52:01.906Z,13.57
2023-03-25T13:54:58.739Z,13.59
2023-03-25T13:57:50.587Z,13.84
2023-03-25T14:00:46.518Z,12.93
2023-03-25T14:03:54.857Z,12.67
2023-03-25T14:07:02.298Z,12.73
2023-03-25T14:10:10.658Z,12.58
2023-03-25T14:12:50.240Z,12.30
2023-03-25T14:15:31.967Z,12.30
2023-03-25T14:18:01.607Z,12.29
2023-03-25T14:20:41.732Z,12.34
2023-03-25T14:23:18.469Z,12.34
2023-03-25T14:25:59.045Z,12.67
2023-03-25T14:28:43.949Z,12.81
2023-03-25T14:31:14.343Z,13.23
2023-03-25T14:34:00.772Z,13.57
2023-03-25T14:36:40.216Z,13.90
2023-03-25T14:39:33.037Z,13.44
2023-03-25T14:42:13.372Z,13.50
2023-03-25T14:44:49.927Z,13.59
2023-03-25T14:47:20.433Z,13.64
2023-03-25T14:50:01.529Z,13.69
2023-03-25T14:52:52.072Z,13.52
2023-03-25T14:55:47.256Z,13.84
2023-03-25T14:58:29.532Z,14.12
2023-03-25T15:01:14.826Z,13.47
2023-03-25T15:03:44.655Z,14.13
2023-03-25T15:06:34.149Z,13.50
2023-03-25T15:09:09.773Z,13.48
2023-03-25T15:11:40.558Z,13.12
2023-03-25T15:14:22.574Z,13.31
2023-03-25T15:16:49.956Z,13.47
2023-03-25T15:19:21.578Z,13.76
2023-03-25T15:21:57.850Z,14.04
2023-03-25T15:24:34.440Z,13.96
2023-03-25T15:27:32.405Z,14.51
2023-03-25T15:30:27.316Z,14.51
2023-03-25T15:33:49.642Z,13.23
2023-03-25T15:36:50.583Z,13.45
2023-03-25T15:39:58.441Z,13.11
2023-03-25T15:42:54.541Z,12.91
2023-03-25T15:45:58.721Z,12.65
2023-03-25T15:49:02.440Z,12.76
2023-03-25T15:52:10.913Z,12.97
2023-03-25T15:54:49.946Z,12.71
2023-03-25T15:57:57.088Z,12.81
2023-03-25T16:00:42.445Z,12.80
2023-03-25T16:03:19.807Z,13.01
2023-03-25T16:06:00.833Z,13.09
2023-03-25T16:08:44.782Z,12.85
2023-03-25T16:11:31.466Z,12.86
2023-03-25T16:14:17.447Z,12.67
2023-03-25T16:16:55.935Z,12.72
2023-03-25T16:19:52.581Z,12.58
2023-03-25T16:22:37.495Z,12.56
2023-03-25T16:25:14.766Z,12.43
2023-03-25T16:27:51.014Z,12.41
2023-03-25T16:30:29.147Z,12.51
2023-03-25T16:33:26.792Z,12.56
2023-03-25T16:36:04.853Z,12.45
2023-03-25T16:38:33.022Z,12.25
2023-03-25T16:41:11.038Z,12.20
2023-03-25T16:43:38.597Z,12.19
2023-03-25T16:46:09.437Z,12.20
2023-03-25T16:48:51.190Z,11.99
2023-03-25T16:51:36.069Z,11.96
2023-03-25T16:54:10.867Z,11.70
2023-03-25T16:56:39.282Z,11.69
2023-03-25T16:59:27.073Z,11.72
2023-03-25T17:01:58.755Z,11.63
2023-03-25T17:04:44.075Z,11.60
2023-03-25T17:07:22.650Z,11.57
2023-03-25T17:09:52.926Z,11.50
2023-03-25T17:12:23.629Z,11.48
2023-03-25T17:14:58.503Z,11.48
2023-03-25T17:17:37.785Z,11.43
2023-03-25T17:20:16.073Z,11.25
2023-03-25T17:23:18.080Z,11.10
2023-03-25T17:25:58.176Z,11.15
2023-03-25T17:28:58.523Z,10.99
2023-03-25T17:31:36.605Z,11.01
2023-03-25T17:34:13.849Z,11.00
2023-03-25T17:36:51.072Z,11.03
2023-03-25T17:39:29.250Z,10.87
2023-03-25T17:42:04.396Z,10.87
2023-03-25T17:44:41.376Z,10.92
2023-03-25T17:47:15.919Z,11.00
2023-03-25T17:49:43.523Z,10.96
2023-03-25T17:52:11.347Z,11.00
2023-03-25T17:54:39.103Z,10.98
2023-03-25T17:57:19.607Z,10.96
2023-03-25T17:59:47.864Z,11.04
2023-03-25T18:02:17.287Z,11.03
2023-03-25T18:04:44.922Z,10.77
2023-03-25T18:07:12.253Z,10.54
2023-03-25T18:09:41.328Z,10.70
2023-03-25T18:12:08.811Z,10.60
2023-03-25T18:14:36.155Z,10.55
2023-03-25T18:17:04.599Z,10.43
2023-03-25T18:19:33.527Z,10.35
2023-03-25T18:22:09.780Z,10.35
2023-03-25T18:24:41.523Z,10.31
2023-03-25T18:27:14.353Z,10.20
2023-03-25T18:29:41.834Z,10.23
2023-03-25T18:32:09.339Z,10.12
2023-03-25T18:34:36.451Z,10.12
2023-03-25T18:37:04.003Z,10.16
2023-03-25T18:39:32.352Z,10.27
2023-03-25T18:42:00.641Z,10.26
2023-03-25T18:44:30.804Z,10.25
2023-03-25T18:46:58.323Z,10.21
2023-03-25T18:49:27.512Z,10.20
2023-03-25T18:51:54.926Z,10.11
2023-03-25T18:54:22.243Z,10.07
2023-03-25T18:56:49.806Z,10.19
2023-03-25T18:59:21.965Z,10.23
2023-03-25T19:01:49.407Z,10.14
2023-03-25T19:04:18.269Z,10.07
2023-03-25T19:06:45.650Z,10.17
2023-03-25T19:09:18.801Z,10.07
2023-03-25T19:11:47.265Z,10.16
2023-03-25T19:14:14.500Z,10.05
2023-03-25T19:16:44.327Z,10.05
2023-03-25T19:19:15.559Z,9.99
2023-03-25T19:21:42.904Z,9.96
2023-03-25T19:24:10.100Z,9.95
2023-03-25T19:26:39.446Z,9.97
2023-03-25T19:29:07.058Z,10.03
2023-03-25T19:31:34.735Z,10.04
2023-03-25T19:34:02.307Z,9.94
2023-03-25T19:36:34.720Z,9.97
2023-03-25T19:39:05.997Z,10.00
2023-03-25T19:41:34.864Z,9.95
2023-03-25T19:44:02.299Z,10.08
2023-03-25T19:46:31.789Z,10.20
2023-03-25T19:48:59.255Z,10.09
2023-03-25T19:51:26.842Z,10.10
2023-03-25T19:53:54.993Z,10.06
2023-03-25T19:56:22.567Z,10.08
2023-03-25T19:58:49.799Z,10.25
2023-03-25T20:01:18.167Z,10.27
2023-03-25T20:03:45.855Z,10.09
2023-03-25T20:06:14.124Z,10.11
2023-03-25T20:08:41.452Z,10.08
2023-03-25T20:11:12.172Z,10.04
2023-03-25T20:13:39.674Z,9.82
2023-03-25T20:16:08.687Z,9.95
2023-03-25T20:18:36.078Z,9.83
2023-03-25T20:21:09.659Z,9.94
2023-03-25T20:23:36.954Z,9.74
2023-03-25T20:26:04.965Z,9.81
2023-03-25T20:28:32.538Z,9.79
2023-03-25T20:30:59.932Z,9.69
2023-03-25T20:33:28.096Z,9.80
2023-03-25T20:35:55.813Z,9.78
2023-03-25T20:38:23.424Z,9.77
2023-03-25T20:40:54.665Z,9.81
2023-03-25T20:43:22.108Z,9.73
2023-03-25T20:45:53.869Z,9.68
2023-03-25T20:48:22.186Z,9.41
2023-03-25T20:50:49.724Z,9.45
2023-03-25T20:53:17.053Z,9.39
2023-03-25T20:55:44.750Z,9.24
2023-03-25T20:58:12.828Z,9.36
2023-03-25T21:00:40.092Z,9.28
2023-03-25T21:03:07.630Z,9.41
2023-03-25T21:05:34.891Z,9.37
2023-03-25T21:08:02.197Z,9.45
2023-03-25T21:10:29.480Z,9.35
2023-03-25T21:12:56.830Z,9.30
2023-03-25T21:15:24.108Z,9.34
2023-03-25T21:17:51.352Z,9.31
2023-03-25T21:20:21.966Z,9.31
2023-03-25T21:22:50.958Z,9.15
2023-03-25T21:25:18.352Z,9.18
2023-03-25T21:27:46.759Z,9.00
2023-03-25T21:30:15.499Z,8.81
2023-03-25T21:32:43.429Z,8.76
2023-03-25T21:35:11.397Z,8.82
2023-03-25T21:37:39.988Z,8.86
2023-03-25T21:40:10.916Z,8.84
2023-03-25T21:42:43.145Z,8.85
2023-03-25T21:45:13.922Z,8.85
2023-03-25T21:47:42.373Z,8.98
2023-03-25T21:50:12.629Z,9.08
2023-03-25T21:52:47.128Z,8.81
2023-03-25T21:55:16.580Z,8.98
2023-03-25T21:57:45.024Z,8.82
2023-03-25T22:00:17.329Z,9.13
2023-03-25T22:02:46.635Z,8.95
2023-03-25T22:05:16.954Z,8.91
2023-03-25T22:07:44.667Z,8.66
2023-03-25T22:10:12.285Z,8.74
2023-03-25T22:12:39.723Z,8.60
2023-03-25T22:15:08.263Z,8.48
2023-03-25T22:17:35.642Z,8.18
2023-03-25T22:20:05.405Z,8.36
2023-03-25T22:22:33.037Z,8.31
2023-03-25T22:25:00.525Z,8.15
2023-03-25T22:27:27.697Z,8.21
2023-03-25T22:29:55.162Z,8.37
2023-03-25T22:32:24.358Z,8.41
2023-03-25T22:34:51.772Z,8.42
2023-03-25T22:37:19.200Z,8.53
2023-03-25T22:39:46.609Z,8.54
2023-03-25T22:42:13.728Z,8.63
2023-03-25T22:44:41.011Z,8.64
2023-03-25T22:47:08.273Z,8.58
2023-03-25T22:49:36.097Z,8.57
2023-03-25T22:52:04.559Z,8.47
2023-03-25T22:54:32.054Z,8.48
2023-03-25T22:56:59.359Z,8.53
2023-03-25T22:59:26.741Z,8.58
2023-03-25T23:01:54.472Z,8.72
2023-03-25T23:04:21.865Z,8.60
2023-03-25T23:07:00.565Z,8.50
2023-03-25T23:09:44.926Z,8.75
2023-03-25T23:12:17.064Z,8.54
2023-03-25T23:14:51.040Z,8.79
2023-03-25T23:17:18.423Z,8.69
2023-03-25T23:19:46.135Z,8.68
2023-03-25T23:22:14.464Z,8.75
2023-03-25T23:24:42.250Z,8.59
2023-03-25T23:27:12.221Z,8.64
2023-03-25T23:29:41.758Z,8.62
2023-03-25T23:32:09.832Z,8.78
2023-03-25T23:34:40.255Z,8.61
2023-03-25T23:37:09.322Z,8.90
2023-03-25T23:39:37.172Z,8.95
2023-03-25T23:42:04.490Z,8.85
2023-03-25T23:44:32.334Z,8.77
2023-03-25T23:46:59.752Z,8.73
2023-03-25T23:49:33.082Z,8.83
2023-03-25T23:52:01.393Z,8.70
2023-03-25T23:54:28.751Z,8.63
2023-03-25T23:56:56.133Z,8.60
2023-03-25T23:59:23.463Z,8.58
